sensor_id;sensor_type;location;lat;lon;timestamp;pressure;altitude;pressure_sealevel;temperature;humidity
63819;BME280;49970;54.976;73.248;2023-02-26T00:01:43;101800.97;;;-16.65;76.92
63819;BME280;49970;54.976;73.248;2023-02-26T00:04:10;101804.50;;;-16.63;77.09
63819;BME280;49970;54.976;73.248;2023-02-26T00:06:42;101802.84;;;-16.62;76.71
63819;BME280;49970;54.976;73.248;2023-02-26T00:09:27;101795.13;;;-16.64;77.03
63819;BME280;49970;54.976;73.248;2023-02-26T00:11:53;101793.56;;;-16.62;76.89
63819;BME280;49970;54.976;73.248;2023-02-26T00:14:20;101785.97;;;-16.62;76.74
63819;BME280;49970;54.976;73.248;2023-02-26T00:16:50;101790.84;;;-16.65;77.14
63819;BME280;49970;54.976;73.248;2023-02-26T00:19:23;101804.38;;;-16.64;77.28
63819;BME280;49970;54.976;73.248;2023-02-26T00:21:50;101799.25;;;-16.66;76.99
63819;BME280;49970;54.976;73.248;2023-02-26T00:24:16;101801.78;;;-16.66;77.72
63819;BME280;49970;54.976;73.248;2023-02-26T00:26:42;101811.13;;;-16.65;77.10
63819;BME280;49970;54.976;73.248;2023-02-26T00:29:09;101812.00;;;-16.64;77.60
63819;BME280;49970;54.976;73.248;2023-02-26T00:31:35;101805.38;;;-16.62;77.54
63819;BME280;49970;54.976;73.248;2023-02-26T00:34:02;101815.53;;;-16.62;77.26
63819;BME280;49970;54.976;73.248;2023-02-26T00:36:35;101818.06;;;-16.62;77.23
63819;BME280;49970;54.976;73.248;2023-02-26T00:39:45;101821.47;;;-16.62;77.34
63819;BME280;49970;54.976;73.248;2023-02-26T00:42:16;101824.00;;;-16.62;77.52
63819;BME280;49970;54.976;73.248;2023-02-26T00:44:43;101828.19;;;-16.62;77.67
63819;BME280;49970;54.976;73.248;2023-02-26T00:47:53;101824.88;;;-16.61;77.01
63819;BME280;49970;54.976;73.248;2023-02-26T00:50:18;101817.34;;;-16.60;77.20
63819;BME280;49970;54.976;73.248;2023-02-26T00:55:24;101819.81;;;-16.61;77.26
63819;BME280;49970;54.976;73.248;2023-02-26T00:57:50;101822.34;;;-16.61;77.51
63819;BME280;49970;54.976;73.248;2023-02-26T01:00:20;101812.97;;;-16.62;77.85
63819;BME280;49970;54.976;73.248;2023-02-26T01:02:47;101826.03;;;-16.56;77.56
63819;BME280;49970;54.976;73.248;2023-02-26T01:05:19;101824.38;;;-16.55;77.86
63819;BME280;49970;54.976;73.248;2023-02-26T01:10:43;101830.50;;;-16.52;77.41
63819;BME280;49970;54.976;73.248;2023-02-26T01:13:09;101818.63;;;-16.53;77.76
63819;BME280;49970;54.976;73.248;2023-02-26T01:15:37;101815.28;;;-16.52;77.65
63819;BME280;49970;54.976;73.248;2023-02-26T01:18:27;101815.88;;;-16.56;77.95
63819;BME280;49970;54.976;73.248;2023-02-26T01:21:10;101825.34;;;-16.53;77.62
63819;BME280;49970;54.976;73.248;2023-02-26T01:23:42;101818.63;;;-16.53;78.01
63819;BME280;49970;54.976;73.248;2023-02-26T01:26:15;101815.22;;;-16.53;77.81
63819;BME280;49970;54.976;73.248;2023-02-26T01:29:46;101821.66;;;-16.59;77.97
63819;BME280;49970;54.976;73.248;2023-02-26T01:34:47;101825.84;;;-16.59;78.02
63819;BME280;49970;54.976;73.248;2023-02-26T01:46:16;101841.75;;;-16.62;77.97
63819;BME280;49970;54.976;73.248;2023-02-26T01:48:53;101847.09;;;-16.57;78.04
63819;BME280;49970;54.976;73.248;2023-02-26T01:51:47;101837.81;;;-16.56;78.12
63819;BME280;49970;54.976;73.248;2023-02-26T01:54:23;101833.47;;;-16.59;78.06
63819;BME280;49970;54.976;73.248;2023-02-26T01:59:37;101693.94;;;-17.30;77.74
63819;BME280;49970;54.976;73.248;2023-02-26T02:02:06;101836.06;;;-16.44;77.83
63819;BME280;49970;54.976;73.248;2023-02-26T02:04:39;101831.19;;;-16.41;78.29
63819;BME280;49970;54.976;73.248;2023-02-26T02:07:07;101844.06;;;-16.38;78.33
63819;BME280;49970;54.976;73.248;2023-02-26T02:09:34;101836.63;;;-16.35;78.25
63819;BME280;49970;54.976;73.248;2023-02-26T02:12:39;101837.59;;;-16.33;78.01
63819;BME280;49970;54.976;73.248;2023-02-26T02:15:16;101836.91;;;-16.30;78.43
63819;BME280;49970;54.976;73.248;2023-02-26T02:18:11;101840.31;;;-16.30;78.55
63819;BME280;49970;54.976;73.248;2023-02-26T02:23:51;101842.16;;;-16.27;78.42
63819;BME280;49970;54.976;73.248;2023-02-26T02:33:03;101846.94;;;-16.19;78.56
63819;BME280;49970;54.976;73.248;2023-02-26T02:35:39;101852.19;;;-16.16;79.06
63819;BME280;49970;54.976;73.248;2023-02-26T02:38:20;101848.19;;;-16.12;78.28
63819;BME280;49970;54.976;73.248;2023-02-26T02:41:12;101858.63;;;-16.08;78.39
63819;BME280;49970;54.976;73.248;2023-02-26T02:43:45;101847.41;;;-16.11;78.32
63819;BME280;49970;54.976;73.248;2023-02-26T02:46:29;101859.75;;;-16.02;78.67
63819;BME280;49970;54.976;73.248;2023-02-26T02:49:04;101856.16;;;-16.06;78.82
63819;BME280;49970;54.976;73.248;2023-02-26T02:51:47;101871.06;;;-15.97;78.44
63819;BME280;49970;54.976;73.248;2023-02-26T02:54:25;101852.16;;;-16.02;78.62
63819;BME280;49970;54.976;73.248;2023-02-26T03:00:34;101877.06;;;-15.82;79.53
63819;BME280;49970;54.976;73.248;2023-02-26T03:03:34;101874.81;;;-15.77;79.01
63819;BME280;49970;54.976;73.248;2023-02-26T03:06:13;101877.81;;;-15.70;78.55
63819;BME280;49970;54.976;73.248;2023-02-26T03:08:51;101864.94;;;-15.73;79.57
63819;BME280;49970;54.976;73.248;2023-02-26T03:11:22;101876.34;;;-15.66;78.73
63819;BME280;49970;54.976;73.248;2023-02-26T03:13:50;101880.84;;;-15.61;79.30
63819;BME280;49970;54.976;73.248;2023-02-26T03:16:48;101887.06;;;-15.55;79.44
63819;BME280;49970;54.976;73.248;2023-02-26T03:19:35;101892.53;;;-15.49;79.38
63819;BME280;49970;54.976;73.248;2023-02-26T03:25:16;101891.31;;;-15.41;78.99
63819;BME280;49970;54.976;73.248;2023-02-26T03:30:53;101895.34;;;-15.30;78.75
63819;BME280;49970;54.976;73.248;2023-02-26T03:34:02;101899.06;;;-15.25;79.33
63819;BME280;49970;54.976;73.248;2023-02-26T03:36:55;101892.47;;;-15.21;78.88
63819;BME280;49970;54.976;73.248;2023-02-26T03:39:42;101893.63;;;-15.16;79.09
63819;BME280;49970;54.976;73.248;2023-02-26T03:43:22;101894.84;;;-15.10;78.85
63819;BME280;49970;54.976;73.248;2023-02-26T03:45:45;101887.22;;;-15.10;79.64
63819;BME280;49970;54.976;73.248;2023-02-26T03:48:16;101895.47;;;-14.99;79.68
63819;BME280;49970;54.976;73.248;2023-02-26T03:50:53;101890.56;;;-14.96;79.79
63819;BME280;49970;54.976;73.248;2023-02-26T03:57:04;101900.66;;;-14.83;79.87
63819;BME280;49970;54.976;73.248;2023-02-26T04:07:39;101905.69;;;-14.68;80.92
63819;BME280;49970;54.976;73.248;2023-02-26T04:10:08;101904.31;;;-14.63;80.60
63819;BME280;49970;54.976;73.248;2023-02-26T04:12:35;101899.50;;;-14.58;80.00
63819;BME280;49970;54.976;73.248;2023-02-26T04:15:04;101904.97;;;-14.50;79.76
63819;BME280;49970;54.976;73.248;2023-02-26T04:17:41;101905.38;;;-14.43;81.58
63819;BME280;49970;54.976;73.248;2023-02-26T04:20:08;101905.63;;;-14.38;80.21
63819;BME280;49970;54.976;73.248;2023-02-26T04:22:36;101901.56;;;-14.35;81.23
63819;BME280;49970;54.976;73.248;2023-02-26T04:25:07;101903.75;;;-14.26;80.66
63819;BME280;49970;54.976;73.248;2023-02-26T04:27:39;101901.72;;;-14.17;80.41
63819;BME280;49970;54.976;73.248;2023-02-26T04:30:07;101906.44;;;-14.08;81.73
63819;BME280;49970;54.976;73.248;2023-02-26T04:32:34;101902.53;;;-14.01;80.85
63819;BME280;49970;54.976;73.248;2023-02-26T04:35:05;101906.19;;;-13.96;81.71
63819;BME280;49970;54.976;73.248;2023-02-26T04:37:32;101907.34;;;-13.91;82.72
63819;BME280;49970;54.976;73.248;2023-02-26T04:39:58;101901.06;;;-13.82;81.53
63819;BME280;49970;54.976;73.248;2023-02-26T04:42:24;101905.75;;;-13.73;82.02
63819;BME280;49970;54.976;73.248;2023-02-26T04:44:56;101911.16;;;-13.67;81.40
63819;BME280;49970;54.976;73.248;2023-02-26T04:47:25;101905.59;;;-13.60;82.88
63819;BME280;49970;54.976;73.248;2023-02-26T04:50:02;101909.41;;;-13.51;82.22
63819;BME280;49970;54.976;73.248;2023-02-26T04:52:30;101906.47;;;-13.43;81.58
63819;BME280;49970;54.976;73.248;2023-02-26T04:54:57;101912.94;;;-13.33;82.54
63819;BME280;49970;54.976;73.248;2023-02-26T04:57:23;101903.09;;;-13.25;81.61
63819;BME280;49970;54.976;73.248;2023-02-26T04:59:50;101909.53;;;-13.16;81.58
63819;BME280;49970;54.976;73.248;2023-02-26T05:02:21;101903.03;;;-13.09;82.90
63819;BME280;49970;54.976;73.248;2023-02-26T05:04:55;101911.00;;;-13.03;82.19
63819;BME280;49970;54.976;73.248;2023-02-26T05:07:32;101907.94;;;-12.96;83.42
63819;BME280;49970;54.976;73.248;2023-02-26T05:09:58;101908.41;;;-12.87;84.18
63819;BME280;49970;54.976;73.248;2023-02-26T05:12:34;101915.56;;;-12.80;83.24
63819;BME280;49970;54.976;73.248;2023-02-26T05:15:01;101912.34;;;-12.75;83.26
63819;BME280;49970;54.976;73.248;2023-02-26T05:17:27;101916.25;;;-12.66;83.67
63819;BME280;49970;54.976;73.248;2023-02-26T05:20:02;101905.50;;;-12.59;83.66
63819;BME280;49970;54.976;73.248;2023-02-26T05:22:29;101905.00;;;-12.51;83.54
63819;BME280;49970;54.976;73.248;2023-02-26T05:25:06;101898.22;;;-12.51;82.17
63819;BME280;49970;54.976;73.248;2023-02-26T05:27:33;101908.31;;;-12.36;82.77
63819;BME280;49970;54.976;73.248;2023-02-26T05:30:00;101901.00;;;-12.28;83.39
63819;BME280;49970;54.976;73.248;2023-02-26T05:32:27;101904.84;;;-12.19;83.69
63819;BME280;49970;54.976;73.248;2023-02-26T05:35:05;101898.56;;;-12.08;82.96
63819;BME280;49970;54.976;73.248;2023-02-26T05:37:42;101905.78;;;-11.99;83.25
63819;BME280;49970;54.976;73.248;2023-02-26T05:40:08;101906.00;;;-11.94;82.65
63819;BME280;49970;54.976;73.248;2023-02-26T05:42:38;101911.63;;;-11.82;82.63
63819;BME280;49970;54.976;73.248;2023-02-26T05:45:05;101912.84;;;-11.74;83.03
63819;BME280;49970;54.976;73.248;2023-02-26T05:47:33;101916.69;;;-11.64;82.83
63819;BME280;49970;54.976;73.248;2023-02-26T05:49:59;101916.22;;;-11.56;82.69
63819;BME280;49970;54.976;73.248;2023-02-26T05:52:26;101919.16;;;-11.46;82.60
63819;BME280;49970;54.976;73.248;2023-02-26T05:54:52;101897.84;;;-11.47;82.73
63819;BME280;49970;54.976;73.248;2023-02-26T05:57:23;101917.16;;;-11.34;82.85
63819;BME280;49970;54.976;73.248;2023-02-26T05:59:50;101921.63;;;-11.29;83.52
63819;BME280;49970;54.976;73.248;2023-02-26T06:02:16;101912.50;;;-11.23;83.50
63819;BME280;49970;54.976;73.248;2023-02-26T06:04:42;101898.97;;;-11.21;83.57
63819;BME280;49970;54.976;73.248;2023-02-26T06:07:09;101912.47;;;-11.04;83.81
63819;BME280;49970;54.976;73.248;2023-02-26T06:09:35;101917.91;;;-10.96;83.23
63819;BME280;49970;54.976;73.248;2023-02-26T06:12:01;101920.75;;;-10.90;83.59
63819;BME280;49970;54.976;73.248;2023-02-26T06:14:27;101903.75;;;-10.88;83.12
63819;BME280;49970;54.976;73.248;2023-02-26T06:16:58;101914.50;;;-10.76;82.96
63819;BME280;49970;54.976;73.248;2023-02-26T06:19:30;101903.75;;;-10.67;83.33
63819;BME280;49970;54.976;73.248;2023-02-26T06:22:06;101908.31;;;-10.60;83.60
63819;BME280;49970;54.976;73.248;2023-02-26T06:24:32;101901.75;;;-10.54;83.58
63819;BME280;49970;54.976;73.248;2023-02-26T06:26:59;101895.06;;;-10.50;84.15
63819;BME280;49970;54.976;73.248;2023-02-26T06:29:25;101893.63;;;-10.43;83.47
63819;BME280;49970;54.976;73.248;2023-02-26T06:31:51;101897.09;;;-10.41;83.63
63819;BME280;49970;54.976;73.248;2023-02-26T06:34:18;101898.06;;;-10.39;83.77
63819;BME280;49970;54.976;73.248;2023-02-26T06:36:49;101890.50;;;-10.36;83.69
63819;BME280;49970;54.976;73.248;2023-02-26T06:39:15;101892.25;;;-10.35;84.37
63819;BME280;49970;54.976;73.248;2023-02-26T06:41:47;101894.09;;;-10.31;85.07
63819;BME280;49970;54.976;73.248;2023-02-26T06:44:18;101888.34;;;-10.25;84.45
63819;BME280;49970;54.976;73.248;2023-02-26T06:46:44;101894.66;;;-10.16;85.51
63819;BME280;49970;54.976;73.248;2023-02-26T06:49:20;101892.47;;;-10.07;85.14
63819;BME280;49970;54.976;73.248;2023-02-26T06:51:47;101892.72;;;-9.99;84.34
63819;BME280;49970;54.976;73.248;2023-02-26T06:54:15;101892.84;;;-9.96;85.22
63819;BME280;49970;54.976;73.248;2023-02-26T06:56:50;101901.00;;;-9.84;85.93
63819;BME280;49970;54.976;73.248;2023-02-26T06:59:18;101893.59;;;-9.76;85.30
63819;BME280;49970;54.976;73.248;2023-02-26T07:01:50;101893.00;;;-9.69;85.91
63819;BME280;49970;54.976;73.248;2023-02-26T07:04:16;101901.00;;;-9.61;86.62
63819;BME280;49970;54.976;73.248;2023-02-26T07:06:42;101896.09;;;-9.54;86.82
63819;BME280;49970;54.976;73.248;2023-02-26T07:09:18;101893.94;;;-9.43;86.46
63819;BME280;49970;54.976;73.248;2023-02-26T07:11:45;101894.16;;;-9.37;85.56
63819;BME280;49970;54.976;73.248;2023-02-26T07:14:21;101898.53;;;-9.34;86.71
63819;BME280;49970;54.976;73.248;2023-02-26T07:16:47;101879.59;;;-9.38;85.73
63819;BME280;49970;54.976;73.248;2023-02-26T07:19:14;101884.13;;;-9.31;86.37
63819;BME280;49970;54.976;73.248;2023-02-26T07:21:40;101897.06;;;-9.27;87.46
63819;BME280;49970;54.976;73.248;2023-02-26T07:24:17;101910.09;;;-9.21;86.54
63819;BME280;49970;54.976;73.248;2023-02-26T07:26:48;101903.34;;;-9.19;87.12
63819;BME280;49970;54.976;73.248;2023-02-26T07:29:25;101909.50;;;-9.14;86.53
63819;BME280;49970;54.976;73.248;2023-02-26T07:31:51;101900.22;;;-9.11;87.38
63819;BME280;49970;54.976;73.248;2023-02-26T07:34:17;101902.94;;;-9.06;87.00
63819;BME280;49970;54.976;73.248;2023-02-26T07:36:44;101898.66;;;-9.06;86.55
63819;BME280;49970;54.976;73.248;2023-02-26T07:39:12;101896.00;;;-9.09;87.56
63819;BME280;49970;54.976;73.248;2023-02-26T07:41:48;101901.09;;;-9.10;86.41
63819;BME280;49970;54.976;73.248;2023-02-26T07:44:14;101900.13;;;-9.12;87.27
63819;BME280;49970;54.976;73.248;2023-02-26T07:46:51;101882.72;;;-9.21;87.38
63819;BME280;49970;54.976;73.248;2023-02-26T07:49:17;101898.00;;;-9.00;87.24
63819;BME280;49970;54.976;73.248;2023-02-26T07:51:44;101890.50;;;-8.94;86.31
63819;BME280;49970;54.976;73.248;2023-02-26T07:54:12;101896.72;;;-8.87;87.05
63819;BME280;49970;54.976;73.248;2023-02-26T07:56:38;101885.88;;;-8.79;86.71
63819;BME280;49970;54.976;73.248;2023-02-26T07:59:06;101889.56;;;-8.70;86.49
63819;BME280;49970;54.976;73.248;2023-02-26T08:01:32;101882.72;;;-8.70;87.08
63819;BME280;49970;54.976;73.248;2023-02-26T08:04:09;101876.72;;;-8.70;86.04
63819;BME280;49970;54.976;73.248;2023-02-26T08:06:39;101876.72;;;-8.70;86.31
63819;BME280;49970;54.976;73.248;2023-02-26T08:09:06;101884.53;;;-8.67;85.91
63819;BME280;49970;54.976;73.248;2023-02-26T08:11:32;101874.38;;;-8.64;86.40
63819;BME280;49970;54.976;73.248;2023-02-26T08:14:02;101874.53;;;-8.58;85.12
63819;BME280;49970;54.976;73.248;2023-02-26T08:16:28;101870.50;;;-8.51;85.22
63819;BME280;49970;54.976;73.248;2023-02-26T08:18:59;101855.97;;;-8.49;84.20
63819;BME280;49970;54.976;73.248;2023-02-26T08:21:26;101870.91;;;-8.36;84.08
63819;BME280;49970;54.976;73.248;2023-02-26T08:23:52;101866.84;;;-8.30;83.92
63819;BME280;49970;54.976;73.248;2023-02-26T08:26:19;101860.22;;;-8.23;82.34
63819;BME280;49970;54.976;73.248;2023-02-26T08:28:46;101869.03;;;-8.15;82.01
63819;BME280;49970;54.976;73.248;2023-02-26T08:31:22;101870.16;;;-8.05;82.19
63819;BME280;49970;54.976;73.248;2023-02-26T08:33:49;101859.16;;;-7.99;82.16
63819;BME280;49970;54.976;73.248;2023-02-26T08:36:26;101860.28;;;-7.91;81.18
63819;BME280;49970;54.976;73.248;2023-02-26T08:38:59;101865.53;;;-7.87;81.38
63819;BME280;49970;54.976;73.248;2023-02-26T08:41:25;101877.06;;;-7.74;81.14
63819;BME280;49970;54.976;73.248;2023-02-26T08:44:07;101886.91;;;-7.59;81.66
63819;BME280;49970;54.976;73.248;2023-02-26T08:46:34;101893.91;;;-7.55;80.78
63819;BME280;49970;54.976;73.248;2023-02-26T08:49:05;101895.50;;;-7.59;79.55
63819;BME280;49970;54.976;73.248;2023-02-26T08:51:32;101905.44;;;-7.71;78.87
63819;BME280;49970;54.976;73.248;2023-02-26T08:54:09;101904.31;;;-7.81;78.48
63819;BME280;49970;54.976;73.248;2023-02-26T08:56:35;101909.19;;;-7.90;77.89
63819;BME280;49970;54.976;73.248;2023-02-26T08:59:03;101904.69;;;-7.97;78.07
63819;BME280;49970;54.976;73.248;2023-02-26T09:01:40;101905.53;;;-7.98;78.47
63819;BME280;49970;54.976;73.248;2023-02-26T09:04:17;101902.13;;;-7.97;78.89
63819;BME280;49970;54.976;73.248;2023-02-26T09:06:44;101893.31;;;-8.05;78.66
63819;BME280;49970;54.976;73.248;2023-02-26T09:09:11;101898.59;;;-7.99;79.04
63819;BME280;49970;54.976;73.248;2023-02-26T09:11:47;101887.47;;;-7.99;78.61
63819;BME280;49970;54.976;73.248;2023-02-26T09:14:14;101896.03;;;-7.99;78.36
63819;BME280;49970;54.976;73.248;2023-02-26T09:16:40;101891.69;;;-8.02;77.94
63819;BME280;49970;54.976;73.248;2023-02-26T09:19:17;101895.91;;;-8.04;78.11
63819;BME280;49970;54.976;73.248;2023-02-26T09:21:45;101894.25;;;-8.02;78.59
63819;BME280;49970;54.976;73.248;2023-02-26T09:24:12;101896.88;;;-8.00;78.27
63819;BME280;49970;54.976;73.248;2023-02-26T09:26:39;101900.44;;;-7.95;78.84
63819;BME280;49970;54.976;73.248;2023-02-26T09:29:06;101897.97;;;-7.92;78.52
63819;BME280;49970;54.976;73.248;2023-02-26T09:31:33;101892.84;;;-7.92;77.45
63819;BME280;49970;54.976;73.248;2023-02-26T09:33:59;101898.81;;;-7.93;78.23
63819;BME280;49970;54.976;73.248;2023-02-26T09:36:26;101903.09;;;-7.93;77.42
63819;BME280;49970;54.976;73.248;2023-02-26T09:39:03;101901.41;;;-7.91;77.86
63819;BME280;49970;54.976;73.248;2023-02-26T09:41:42;101905.78;;;-7.89;77.99
63819;BME280;49970;54.976;73.248;2023-02-26T09:44:24;101907.66;;;-7.83;77.77
63819;BME280;49970;54.976;73.248;2023-02-26T09:47:18;101923.19;;;-7.80;78.23
63819;BME280;49970;54.976;73.248;2023-02-26T09:53:00;101902.66;;;-7.79;78.36
63819;BME280;49970;54.976;73.248;2023-02-26T09:55:47;101913.91;;;-7.75;78.44
63819;BME280;49970;54.976;73.248;2023-02-26T10:03:44;101915.69;;;-7.72;77.31
63819;BME280;49970;54.976;73.248;2023-02-26T10:06:29;101905.31;;;-7.75;76.58
63819;BME280;49970;54.976;73.248;2023-02-26T10:12:22;101911.16;;;-7.81;76.95
63819;BME280;49970;54.976;73.248;2023-02-26T10:14:57;101911.97;;;-7.82;76.49
63819;BME280;49970;54.976;73.248;2023-02-26T10:17:27;101917.09;;;-7.82;76.81
63819;BME280;49970;54.976;73.248;2023-02-26T10:20:24;101894.44;;;-7.95;76.19
63819;BME280;49970;54.976;73.248;2023-02-26T10:23:15;101917.84;;;-7.86;76.94
63819;BME280;49970;54.976;73.248;2023-02-26T10:25:57;101924.56;;;-7.91;76.33
63819;BME280;49970;54.976;73.248;2023-02-26T10:28:58;101918.59;;;-7.90;77.22
63819;BME280;49970;54.976;73.248;2023-02-26T10:31:54;101931.38;;;-7.93;76.57
63819;BME280;49970;54.976;73.248;2023-02-26T10:35:02;101934.75;;;-7.94;76.58
63819;BME280;49970;54.976;73.248;2023-02-26T10:42:45;101943.28;;;-7.95;76.98
63819;BME280;49970;54.976;73.248;2023-02-26T10:51:14;101940.59;;;-8.00;76.46
63819;BME280;49970;54.976;73.248;2023-02-26T10:53:48;101933.69;;;-8.01;76.05
63819;BME280;49970;54.976;73.248;2023-02-26T10:56:37;101943.13;;;-8.02;76.72
63819;BME280;49970;54.976;73.248;2023-02-26T10:59:15;101939.63;;;-8.04;76.62
63819;BME280;49970;54.976;73.248;2023-02-26T11:01:42;101942.19;;;-8.04;76.29
63819;BME280;49970;54.976;73.248;2023-02-26T11:04:13;101945.63;;;-8.03;76.89
63819;BME280;49970;54.976;73.248;2023-02-26T11:06:48;101944.75;;;-8.04;76.95
63819;BME280;49970;54.976;73.248;2023-02-26T11:09:27;101923.31;;;-8.04;76.17
63819;BME280;49970;54.976;73.248;2023-02-26T11:14:52;101934.28;;;-8.10;75.78
63819;BME280;49970;54.976;73.248;2023-02-26T11:17:27;101933.31;;;-8.13;75.93
63819;BME280;49970;54.976;73.248;2023-02-26T11:20:11;101933.31;;;-8.13;76.32
63819;BME280;49970;54.976;73.248;2023-02-26T11:22:46;101930.72;;;-8.15;76.87
63819;BME280;49970;54.976;73.248;2023-02-26T11:25:16;101934.19;;;-8.13;76.65
63819;BME280;49970;54.976;73.248;2023-02-26T11:27:43;101929.09;;;-8.11;76.79
63819;BME280;49970;54.976;73.248;2023-02-26T11:30:19;101922.28;;;-8.11;76.44
63819;BME280;49970;54.976;73.248;2023-02-26T11:32:50;101914.34;;;-8.17;76.44
63819;BME280;49970;54.976;73.248;2023-02-26T11:35:23;101926.69;;;-8.07;77.50
63819;BME280;49970;54.976;73.248;2023-02-26T11:37:58;101934.41;;;-8.07;76.74
63819;BME280;49970;54.976;73.248;2023-02-26T11:40:46;101918.91;;;-8.08;76.67
63819;BME280;49970;54.976;73.248;2023-02-26T11:43:20;101927.34;;;-8.12;77.01
63819;BME280;49970;54.976;73.248;2023-02-26T11:45:59;101921.44;;;-8.10;76.92
63819;BME280;49970;54.976;73.248;2023-02-26T11:48:40;101931.75;;;-8.08;77.27
63819;BME280;49970;54.976;73.248;2023-02-26T11:51:18;101930.03;;;-8.09;76.48
63819;BME280;49970;54.976;73.248;2023-02-26T11:54:18;101933.47;;;-8.09;76.33
63819;BME280;49970;54.976;73.248;2023-02-26T11:56:46;101933.47;;;-8.09;77.41
63819;BME280;49970;54.976;73.248;2023-02-26T11:59:23;101936.91;;;-8.08;76.90
63819;BME280;49970;54.976;73.248;2023-02-26T12:01:51;101937.78;;;-8.08;77.63
63819;BME280;49970;54.976;73.248;2023-02-26T12:06:53;101939.53;;;-8.07;77.30
63819;BME280;49970;54.976;73.248;2023-02-26T12:09:21;101935.25;;;-8.06;77.49
63819;BME280;49970;54.976;73.248;2023-02-26T12:28:31;101942.16;;;-8.05;77.72
63819;BME280;49970;54.976;73.248;2023-02-26T12:31:20;101931.91;;;-8.04;78.27
63819;BME280;49970;54.976;73.248;2023-02-26T12:39:46;101943.16;;;-8.00;78.62
63819;BME280;49970;54.976;73.248;2023-02-26T13:11:12;101986.91;;;-7.98;79.40
63819;BME280;49970;54.976;73.248;2023-02-26T13:18:38;101986.09;;;-7.97;80.09
63819;BME280;49970;54.976;73.248;2023-02-26T13:22:33;101985.28;;;-7.96;79.51
63819;BME280;49970;54.976;73.248;2023-02-26T13:26:22;101990.41;;;-7.96;79.66
63819;BME280;49970;54.976;73.248;2023-02-26T13:34:05;102006.75;;;-7.94;80.60
63819;BME280;49970;54.976;73.248;2023-02-26T13:37:40;102009.38;;;-7.93;81.28
63819;BME280;49970;54.976;73.248;2023-02-26T13:44:47;102024.97;;;-7.88;80.73
63819;BME280;49970;54.976;73.248;2023-02-26T13:52:20;102033.69;;;-7.83;81.86
63819;BME280;49970;54.976;73.248;2023-02-26T13:56:17;102041.50;;;-7.80;81.94
63819;BME280;49970;54.976;73.248;2023-02-26T14:17:41;102052.19;;;-7.68;82.82
63819;BME280;49970;54.976;73.248;2023-02-26T14:21:26;102044.47;;;-7.68;82.38
63819;BME280;49970;54.976;73.248;2023-02-26T14:25:31;102053.06;;;-7.67;82.75
63819;BME280;49970;54.976;73.248;2023-02-26T14:29:21;102041.88;;;-7.68;82.44
63819;BME280;49970;54.976;73.248;2023-02-26T14:33:06;102055.59;;;-7.69;82.54
63819;BME280;49970;54.976;73.248;2023-02-26T14:37:17;102048.66;;;-7.70;82.62
63819;BME280;49970;54.976;73.248;2023-02-26T14:40:11;102053.00;;;-7.69;83.10
63819;BME280;49970;54.976;73.248;2023-02-26T14:42:42;102053.00;;;-7.69;83.24
63819;BME280;49970;54.976;73.248;2023-02-26T14:47:50;102047.81;;;-7.70;83.16
63819;BME280;49970;54.976;73.248;2023-02-26T14:50:19;102043.53;;;-7.70;83.62
63819;BME280;49970;54.976;73.248;2023-02-26T15:01:23;102046.06;;;-7.71;83.54
63819;BME280;49970;54.976;73.248;2023-02-26T15:04:13;102039.22;;;-7.71;84.35
63819;BME280;49970;54.976;73.248;2023-02-26T15:07:14;102040.06;;;-7.72;83.58
63819;BME280;49970;54.976;73.248;2023-02-26T15:09:50;102039.22;;;-7.71;83.87
63819;BME280;49970;54.976;73.248;2023-02-26T15:20:32;102063.13;;;-7.73;84.58
63819;BME280;49970;54.976;73.248;2023-02-26T15:23:29;102065.66;;;-7.75;84.43
63819;BME280;49970;54.976;73.248;2023-02-26T15:25:58;102057.84;;;-7.78;83.73
63819;BME280;49970;54.976;73.248;2023-02-26T15:28:33;102061.28;;;-7.78;84.38
63819;BME280;49970;54.976;73.248;2023-02-26T15:31:03;102065.53;;;-7.80;83.98
63819;BME280;49970;54.976;73.248;2023-02-26T15:33:32;102068.09;;;-7.80;84.51
63819;BME280;49970;54.976;73.248;2023-02-26T15:36:00;102060.38;;;-7.80;84.97
63819;BME280;49970;54.976;73.248;2023-02-26T15:38:44;102063.78;;;-7.81;84.13
63819;BME280;49970;54.976;73.248;2023-02-26T15:41:24;102067.22;;;-7.80;84.33
63819;BME280;49970;54.976;73.248;2023-02-26T15:43:56;102070.63;;;-7.81;84.08
63819;BME280;49970;54.976;73.248;2023-02-26T15:46:32;102074.06;;;-7.81;84.35
63819;BME280;49970;54.976;73.248;2023-02-26T15:49:08;102054.06;;;-7.89;84.08
63819;BME280;49970;54.976;73.248;2023-02-26T15:51:37;102073.13;;;-7.83;84.07
63819;BME280;49970;54.976;73.248;2023-02-26T15:54:05;102068.81;;;-7.84;83.89
63819;BME280;49970;54.976;73.248;2023-02-26T15:56:35;102067.84;;;-7.87;84.66
63819;BME280;49970;54.976;73.248;2023-02-26T15:59:26;102070.53;;;-7.84;84.58
63819;BME280;49970;54.976;73.248;2023-02-26T16:01:54;102067.94;;;-7.84;84.84
63819;BME280;49970;54.976;73.248;2023-02-26T16:04:22;102050.47;;;-7.94;84.18
63819;BME280;49970;54.976;73.248;2023-02-26T16:06:54;102060.25;;;-7.84;84.96
63819;BME280;49970;54.976;73.248;2023-02-26T16:09:49;102073.97;;;-7.84;84.72
63819;BME280;49970;54.976;73.248;2023-02-26T16:14:58;102074.81;;;-7.85;84.68
63819;BME280;49970;54.976;73.248;2023-02-26T16:17:41;102090.13;;;-7.88;84.67
63819;BME280;49970;54.976;73.248;2023-02-26T16:20:15;102091.81;;;-7.88;84.58
63819;BME280;49970;54.976;73.248;2023-02-26T16:22:59;102076.03;;;-7.99;84.68
63819;BME280;49970;54.976;73.248;2023-02-26T16:25:36;102101.28;;;-7.87;84.45
63819;BME280;49970;54.976;73.248;2023-02-26T16:28:15;102088.16;;;-7.95;83.93
63819;BME280;49970;54.976;73.248;2023-02-26T16:30:56;102091.59;;;-7.94;84.74
63819;BME280;49970;54.976;73.248;2023-02-26T16:33:26;102094.41;;;-7.88;84.32